Terminal Aerodrome Forecast
Issued by NWS

Current Version | Previous Version | Graphics & Text | Print | Product List | Glossary On
Versions: 1 2 3 4 5 6 7 8 9 10 11 12 13 14 15 16 17 18 19 20 21 22 23 24
000
FTUS41 KRLX 042338
TAFCKB
TAF
KCKB 042338Z 0500/0524 12004KT P6SM OVC050
     FM050200 15004KT 5SM -SHRA OVC025
     FM050600 19005KT 5SM -SHRA OVC007
     FM051100 26006KT P6SM BKN007
     FM051400 27005KT P6SM BKN012
     FM052000 VRB03KT P6SM SCT040=

USA.gov is the U.S. government's official web portal to all federal, state and local government web resources and services.